sensor_id;sensor_type;location;lat;lon;timestamp;P1;durP1;ratioP1;P2;durP2;ratioP2
85399;SDS011;75813;48.758;9.290;2024-03-29T00:00:34;4.13;;;1.45;;
85399;SDS011;75813;48.758;9.290;2024-03-29T00:03:00;4.55;;;1.20;;
85399;SDS011;75813;48.758;9.290;2024-03-29T00:05:25;4.78;;;1.27;;
85399;SDS011;75813;48.758;9.290;2024-03-29T00:07:50;3.35;;;1.00;;
85399;SDS011;75813;48.758;9.290;2024-03-29T00:10:16;4.18;;;1.60;;
85399;SDS011;75813;48.758;9.290;2024-03-29T00:12:41;3.28;;;1.00;;
85399;SDS011;75813;48.758;9.290;2024-03-29T00:15:06;3.67;;;1.00;;
85399;SDS011;75813;48.758;9.290;2024-03-29T00:17:32;3.10;;;1.13;;
85399;SDS011;75813;48.758;9.290;2024-03-29T00:19:58;3.72;;;1.30;;
85399;SDS011;75813;48.758;9.290;2024-03-29T00:22:23;3.80;;;1.20;;
85399;SDS011;75813;48.758;9.290;2024-03-29T00:24:48;4.40;;;1.20;;
85399;SDS011;75813;48.758;9.290;2024-03-29T00:27:14;3.40;;;1.08;;
85399;SDS011;75813;48.758;9.290;2024-03-29T00:29:39;3.13;;;1.10;;
85399;SDS011;75813;48.758;9.290;2024-03-29T00:32:05;5.03;;;1.30;;
85399;SDS011;75813;48.758;9.290;2024-03-29T00:34:30;3.97;;;1.30;;
85399;SDS011;75813;48.758;9.290;2024-03-29T00:36:56;4.18;;;1.38;;
85399;SDS011;75813;48.758;9.290;2024-03-29T00:39:22;4.53;;;1.20;;
85399;SDS011;75813;48.758;9.290;2024-03-29T00:41:47;4.45;;;1.40;;
85399;SDS011;75813;48.758;9.290;2024-03-29T00:44:12;3.95;;;1.38;;
85399;SDS011;75813;48.758;9.290;2024-03-29T00:46:38;6.25;;;1.20;;
85399;SDS011;75813;48.758;9.290;2024-03-29T00:49:03;4.80;;;1.15;;
85399;SDS011;75813;48.758;9.290;2024-03-29T00:51:28;3.88;;;1.20;;
85399;SDS011;75813;48.758;9.290;2024-03-29T00:53:54;6.25;;;1.50;;
85399;SDS011;75813;48.758;9.290;2024-03-29T00:56:20;3.42;;;0.90;;
85399;SDS011;75813;48.758;9.290;2024-03-29T00:58:45;3.05;;;1.20;;
85399;SDS011;75813;48.758;9.290;2024-03-29T01:01:11;4.10;;;1.00;;
85399;SDS011;75813;48.758;9.290;2024-03-29T01:03:36;4.43;;;1.20;;
85399;SDS011;75813;48.758;9.290;2024-03-29T01:06:02;2.20;;;0.90;;
85399;SDS011;75813;48.758;9.290;2024-03-29T01:08:27;4.72;;;1.70;;
85399;SDS011;75813;48.758;9.290;2024-03-29T01:10:53;6.93;;;1.25;;
85399;SDS011;75813;48.758;9.290;2024-03-29T01:13:18;3.72;;;1.13;;
85399;SDS011;75813;48.758;9.290;2024-03-29T01:15:44;3.47;;;1.20;;
85399;SDS011;75813;48.758;9.290;2024-03-29T01:18:10;3.53;;;1.10;;
85399;SDS011;75813;48.758;9.290;2024-03-29T01:20:35;4.93;;;1.45;;
85399;SDS011;75813;48.758;9.290;2024-03-29T01:23:01;4.68;;;1.00;;
85399;SDS011;75813;48.758;9.290;2024-03-29T01:25:26;3.63;;;1.20;;
85399;SDS011;75813;48.758;9.290;2024-03-29T01:27:52;3.47;;;1.10;;
85399;SDS011;75813;48.758;9.290;2024-03-29T01:30:18;4.43;;;1.33;;
85399;SDS011;75813;48.758;9.290;2024-03-29T01:32:43;2.70;;;1.08;;
85399;SDS011;75813;48.758;9.290;2024-03-29T01:35:09;3.28;;;0.93;;
85399;SDS011;75813;48.758;9.290;2024-03-29T01:37:34;5.95;;;1.27;;
85399;SDS011;75813;48.758;9.290;2024-03-29T01:40:00;4.28;;;1.20;;
85399;SDS011;75813;48.758;9.290;2024-03-29T01:42:25;3.42;;;1.23;;
85399;SDS011;75813;48.758;9.290;2024-03-29T01:44:50;3.20;;;1.10;;
85399;SDS011;75813;48.758;9.290;2024-03-29T01:47:16;3.75;;;1.20;;
85399;SDS011;75813;48.758;9.290;2024-03-29T01:49:43;5.03;;;1.15;;
85399;SDS011;75813;48.758;9.290;2024-03-29T01:52:10;4.10;;;1.30;;
85399;SDS011;75813;48.758;9.290;2024-03-29T01:54:37;4.55;;;1.17;;
85399;SDS011;75813;48.758;9.290;2024-03-29T01:57:03;3.65;;;1.40;;
85399;SDS011;75813;48.758;9.290;2024-03-29T01:59:29;5.05;;;1.20;;
85399;SDS011;75813;48.758;9.290;2024-03-29T02:01:56;4.82;;;1.20;;
85399;SDS011;75813;48.758;9.290;2024-03-29T02:04:21;5.32;;;1.55;;
85399;SDS011;75813;48.758;9.290;2024-03-29T02:06:47;4.60;;;1.30;;
85399;SDS011;75813;48.758;9.290;2024-03-29T02:09:12;4.30;;;1.25;;
85399;SDS011;75813;48.758;9.290;2024-03-29T02:11:38;4.80;;;1.40;;
85399;SDS011;75813;48.758;9.290;2024-03-29T02:14:03;3.80;;;1.30;;
85399;SDS011;75813;48.758;9.290;2024-03-29T02:16:31;3.20;;;1.25;;
85399;SDS011;75813;48.758;9.290;2024-03-29T02:18:56;3.15;;;1.50;;
85399;SDS011;75813;48.758;9.290;2024-03-29T02:21:22;2.85;;;1.40;;
85399;SDS011;75813;48.758;9.290;2024-03-29T02:23:47;2.78;;;0.90;;
85399;SDS011;75813;48.758;9.290;2024-03-29T02:26:22;2.13;;;1.08;;
85399;SDS011;75813;48.758;9.290;2024-03-29T02:28:49;4.10;;;1.17;;
85399;SDS011;75813;48.758;9.290;2024-03-29T02:31:15;3.47;;;1.00;;
85399;SDS011;75813;48.758;9.290;2024-03-29T02:33:40;3.60;;;1.10;;
85399;SDS011;75813;48.758;9.290;2024-03-29T02:36:06;4.03;;;1.02;;
85399;SDS011;75813;48.758;9.290;2024-03-29T02:38:31;4.30;;;1.52;;
85399;SDS011;75813;48.758;9.290;2024-03-29T02:40:56;4.45;;;1.25;;
85399;SDS011;75813;48.758;9.290;2024-03-29T02:43:22;2.55;;;0.90;;
85399;SDS011;75813;48.758;9.290;2024-03-29T02:45:47;2.75;;;0.95;;
85399;SDS011;75813;48.758;9.290;2024-03-29T02:48:12;3.20;;;0.90;;
85399;SDS011;75813;48.758;9.290;2024-03-29T02:50:38;3.92;;;1.30;;
85399;SDS011;75813;48.758;9.290;2024-03-29T02:53:03;4.07;;;1.23;;
85399;SDS011;75813;48.758;9.290;2024-03-29T02:55:29;3.80;;;1.00;;
85399;SDS011;75813;48.758;9.290;2024-03-29T02:57:54;5.55;;;1.85;;
85399;SDS011;75813;48.758;9.290;2024-03-29T03:00:19;3.65;;;1.10;;
85399;SDS011;75813;48.758;9.290;2024-03-29T03:02:45;4.07;;;1.00;;
85399;SDS011;75813;48.758;9.290;2024-03-29T03:05:10;3.33;;;1.15;;
85399;SDS011;75813;48.758;9.290;2024-03-29T03:07:36;3.17;;;1.30;;
85399;SDS011;75813;48.758;9.290;2024-03-29T03:10:20;4.40;;;1.35;;
85399;SDS011;75813;48.758;9.290;2024-03-29T03:13:04;2.30;;;0.85;;
85399;SDS011;75813;48.758;9.290;2024-03-29T03:15:29;3.10;;;1.00;;
85399;SDS011;75813;48.758;9.290;2024-03-29T03:17:55;4.63;;;1.40;;
85399;SDS011;75813;48.758;9.290;2024-03-29T03:20:20;3.65;;;1.15;;
85399;SDS011;75813;48.758;9.290;2024-03-29T03:22:47;4.07;;;1.35;;
85399;SDS011;75813;48.758;9.290;2024-03-29T03:25:13;4.10;;;1.23;;
85399;SDS011;75813;48.758;9.290;2024-03-29T03:27:38;4.35;;;1.30;;
85399;SDS011;75813;48.758;9.290;2024-03-29T03:30:03;3.75;;;1.20;;
85399;SDS011;75813;48.758;9.290;2024-03-29T03:32:29;3.75;;;0.95;;
85399;SDS011;75813;48.758;9.290;2024-03-29T03:34:55;2.65;;;1.00;;
85399;SDS011;75813;48.758;9.290;2024-03-29T03:37:20;3.17;;;1.20;;
85399;SDS011;75813;48.758;9.290;2024-03-29T03:39:45;3.47;;;0.95;;
85399;SDS011;75813;48.758;9.290;2024-03-29T03:42:11;2.10;;;1.05;;
85399;SDS011;75813;48.758;9.290;2024-03-29T03:44:36;3.33;;;0.80;;
85399;SDS011;75813;48.758;9.290;2024-03-29T03:47:01;2.60;;;1.17;;
85399;SDS011;75813;48.758;9.290;2024-03-29T03:49:27;1.98;;;0.80;;
85399;SDS011;75813;48.758;9.290;2024-03-29T03:51:52;3.80;;;0.90;;
85399;SDS011;75813;48.758;9.290;2024-03-29T03:54:17;4.40;;;1.20;;
85399;SDS011;75813;48.758;9.290;2024-03-29T03:56:43;2.97;;;0.90;;
85399;SDS011;75813;48.758;9.290;2024-03-29T03:59:08;2.35;;;0.77;;
85399;SDS011;75813;48.758;9.290;2024-03-29T04:01:34;2.15;;;0.85;;
85399;SDS011;75813;48.758;9.290;2024-03-29T04:03:59;3.03;;;1.08;;
85399;SDS011;75813;48.758;9.290;2024-03-29T04:06:25;4.15;;;1.00;;
85399;SDS011;75813;48.758;9.290;2024-03-29T04:08:50;2.97;;;1.00;;
85399;SDS011;75813;48.758;9.290;2024-03-29T04:11:15;2.97;;;1.00;;
85399;SDS011;75813;48.758;9.290;2024-03-29T04:13:42;3.03;;;0.90;;
85399;SDS011;75813;48.758;9.290;2024-03-29T04:16:11;2.55;;;1.10;;
85399;SDS011;75813;48.758;9.290;2024-03-29T04:18:36;2.47;;;0.82;;
85399;SDS011;75813;48.758;9.290;2024-03-29T04:21:01;1.80;;;0.75;;
85399;SDS011;75813;48.758;9.290;2024-03-29T04:23:28;2.08;;;1.00;;
85399;SDS011;75813;48.758;9.290;2024-03-29T04:25:54;1.65;;;0.60;;
85399;SDS011;75813;48.758;9.290;2024-03-29T04:28:20;1.10;;;0.73;;
85399;SDS011;75813;48.758;9.290;2024-03-29T04:30:58;1.27;;;0.80;;
85399;SDS011;75813;48.758;9.290;2024-03-29T04:33:25;1.60;;;0.68;;
85399;SDS011;75813;48.758;9.290;2024-03-29T04:35:56;2.72;;;0.90;;
85399;SDS011;75813;48.758;9.290;2024-03-29T04:38:23;1.27;;;0.57;;
85399;SDS011;75813;48.758;9.290;2024-03-29T04:40:49;1.42;;;0.82;;
85399;SDS011;75813;48.758;9.290;2024-03-29T04:43:15;2.22;;;0.90;;
85399;SDS011;75813;48.758;9.290;2024-03-29T04:45:42;1.52;;;0.75;;
85399;SDS011;75813;48.758;9.290;2024-03-29T04:48:09;1.67;;;0.70;;
85399;SDS011;75813;48.758;9.290;2024-03-29T04:50:35;1.95;;;0.77;;
85399;SDS011;75813;48.758;9.290;2024-03-29T04:53:00;1.92;;;0.70;;
85399;SDS011;75813;48.758;9.290;2024-03-29T04:55:26;3.30;;;0.70;;
85399;SDS011;75813;48.758;9.290;2024-03-29T04:57:51;2.10;;;0.70;;
85399;SDS011;75813;48.758;9.290;2024-03-29T05:00:16;2.03;;;0.80;;
85399;SDS011;75813;48.758;9.290;2024-03-29T05:02:42;2.97;;;0.85;;
85399;SDS011;75813;48.758;9.290;2024-03-29T05:05:07;3.30;;;1.20;;
85399;SDS011;75813;48.758;9.290;2024-03-29T05:07:32;2.30;;;0.80;;
85399;SDS011;75813;48.758;9.290;2024-03-29T05:09:58;4.93;;;1.00;;
85399;SDS011;75813;48.758;9.290;2024-03-29T05:12:24;2.13;;;0.70;;
85399;SDS011;75813;48.758;9.290;2024-03-29T05:14:49;3.03;;;0.98;;
85399;SDS011;75813;48.758;9.290;2024-03-29T05:17:15;2.42;;;0.75;;
85399;SDS011;75813;48.758;9.290;2024-03-29T05:19:42;2.95;;;0.68;;
85399;SDS011;75813;48.758;9.290;2024-03-29T05:22:08;2.75;;;0.60;;
85399;SDS011;75813;48.758;9.290;2024-03-29T05:24:33;3.47;;;0.90;;
85399;SDS011;75813;48.758;9.290;2024-03-29T05:26:59;2.15;;;0.93;;
85399;SDS011;75813;48.758;9.290;2024-03-29T05:29:24;1.85;;;0.75;;
85399;SDS011;75813;48.758;9.290;2024-03-29T05:31:49;3.13;;;0.70;;
85399;SDS011;75813;48.758;9.290;2024-03-29T05:34:15;2.38;;;0.85;;
85399;SDS011;75813;48.758;9.290;2024-03-29T05:36:40;1.70;;;0.60;;
85399;SDS011;75813;48.758;9.290;2024-03-29T05:39:06;2.65;;;1.00;;
85399;SDS011;75813;48.758;9.290;2024-03-29T05:41:31;1.63;;;0.80;;
85399;SDS011;75813;48.758;9.290;2024-03-29T05:43:57;2.45;;;1.08;;
85399;SDS011;75813;48.758;9.290;2024-03-29T05:46:23;1.88;;;0.90;;
85399;SDS011;75813;48.758;9.290;2024-03-29T05:48:48;2.08;;;0.80;;
85399;SDS011;75813;48.758;9.290;2024-03-29T05:51:13;3.33;;;1.08;;
85399;SDS011;75813;48.758;9.290;2024-03-29T05:53:39;3.38;;;0.90;;
85399;SDS011;75813;48.758;9.290;2024-03-29T05:56:05;2.58;;;1.08;;
85399;SDS011;75813;48.758;9.290;2024-03-29T05:58:32;2.65;;;0.88;;
85399;SDS011;75813;48.758;9.290;2024-03-29T06:01:00;2.80;;;0.93;;
85399;SDS011;75813;48.758;9.290;2024-03-29T06:03:26;2.78;;;0.93;;
85399;SDS011;75813;48.758;9.290;2024-03-29T06:05:52;2.45;;;1.08;;
85399;SDS011;75813;48.758;9.290;2024-03-29T06:08:17;2.83;;;0.90;;
85399;SDS011;75813;48.758;9.290;2024-03-29T06:10:43;1.40;;;0.65;;
85399;SDS011;75813;48.758;9.290;2024-03-29T06:13:08;3.47;;;1.10;;
85399;SDS011;75813;48.758;9.290;2024-03-29T06:15:42;3.22;;;0.93;;
85399;SDS011;75813;48.758;9.290;2024-03-29T06:18:26;3.08;;;0.80;;
85399;SDS011;75813;48.758;9.290;2024-03-29T06:20:52;3.83;;;1.20;;
85399;SDS011;75813;48.758;9.290;2024-03-29T06:23:17;4.65;;;1.30;;
85399;SDS011;75813;48.758;9.290;2024-03-29T06:25:43;6.00;;;1.13;;
85399;SDS011;75813;48.758;9.290;2024-03-29T06:28:09;4.00;;;1.20;;
85399;SDS011;75813;48.758;9.290;2024-03-29T06:30:35;3.70;;;1.08;;
85399;SDS011;75813;48.758;9.290;2024-03-29T06:33:00;4.82;;;0.98;;
85399;SDS011;75813;48.758;9.290;2024-03-29T06:35:27;3.00;;;0.80;;
85399;SDS011;75813;48.758;9.290;2024-03-29T06:37:53;2.53;;;0.90;;
85399;SDS011;75813;48.758;9.290;2024-03-29T06:40:19;2.83;;;1.10;;
85399;SDS011;75813;48.758;9.290;2024-03-29T06:42:44;2.50;;;0.80;;
85399;SDS011;75813;48.758;9.290;2024-03-29T06:45:10;2.05;;;1.00;;
85399;SDS011;75813;48.758;9.290;2024-03-29T06:47:35;3.75;;;0.90;;
85399;SDS011;75813;48.758;9.290;2024-03-29T06:50:00;4.45;;;1.30;;
85399;SDS011;75813;48.758;9.290;2024-03-29T06:52:26;3.13;;;1.10;;
85399;SDS011;75813;48.758;9.290;2024-03-29T06:54:51;3.25;;;0.90;;
85399;SDS011;75813;48.758;9.290;2024-03-29T06:57:16;2.80;;;1.00;;
85399;SDS011;75813;48.758;9.290;2024-03-29T06:59:46;2.55;;;0.80;;
85399;SDS011;75813;48.758;9.290;2024-03-29T07:02:12;3.17;;;1.10;;
85399;SDS011;75813;48.758;9.290;2024-03-29T07:04:37;2.92;;;1.00;;
85399;SDS011;75813;48.758;9.290;2024-03-29T07:07:03;3.30;;;1.23;;
85399;SDS011;75813;48.758;9.290;2024-03-29T07:09:28;5.10;;;1.27;;
85399;SDS011;75813;48.758;9.290;2024-03-29T07:11:54;3.40;;;1.15;;
85399;SDS011;75813;48.758;9.290;2024-03-29T07:14:20;3.47;;;1.10;;
85399;SDS011;75813;48.758;9.290;2024-03-29T07:16:45;3.00;;;0.85;;
85399;SDS011;75813;48.758;9.290;2024-03-29T07:19:11;4.72;;;1.42;;
85399;SDS011;75813;48.758;9.290;2024-03-29T07:21:44;4.07;;;1.45;;
85399;SDS011;75813;48.758;9.290;2024-03-29T07:24:10;3.53;;;1.13;;
85399;SDS011;75813;48.758;9.290;2024-03-29T07:26:36;2.63;;;1.00;;
85399;SDS011;75813;48.758;9.290;2024-03-29T07:29:02;3.40;;;0.90;;
85399;SDS011;75813;48.758;9.290;2024-03-29T07:31:30;3.00;;;0.93;;
85399;SDS011;75813;48.758;9.290;2024-03-29T07:33:55;2.10;;;1.00;;
85399;SDS011;75813;48.758;9.290;2024-03-29T07:36:21;2.30;;;0.70;;
85399;SDS011;75813;48.758;9.290;2024-03-29T07:38:48;4.50;;;1.35;;
85399;SDS011;75813;48.758;9.290;2024-03-29T07:41:13;5.00;;;1.38;;
85399;SDS011;75813;48.758;9.290;2024-03-29T07:43:40;5.18;;;1.38;;
85399;SDS011;75813;48.758;9.290;2024-03-29T07:46:09;7.05;;;1.80;;
85399;SDS011;75813;48.758;9.290;2024-03-29T07:48:34;5.70;;;1.60;;
85399;SDS011;75813;48.758;9.290;2024-03-29T07:51:01;6.90;;;1.70;;
85399;SDS011;75813;48.758;9.290;2024-03-29T07:53:26;4.57;;;1.40;;
85399;SDS011;75813;48.758;9.290;2024-03-29T07:55:51;6.82;;;2.40;;
85399;SDS011;75813;48.758;9.290;2024-03-29T07:58:17;5.25;;;1.40;;
85399;SDS011;75813;48.758;9.290;2024-03-29T08:00:42;3.05;;;1.20;;
85399;SDS011;75813;48.758;9.290;2024-03-29T08:03:08;3.55;;;1.13;;
85399;SDS011;75813;48.758;9.290;2024-03-29T08:05:34;3.55;;;1.15;;
85399;SDS011;75813;48.758;9.290;2024-03-29T08:07:59;6.38;;;1.33;;
85399;SDS011;75813;48.758;9.290;2024-03-29T08:10:25;2.78;;;1.02;;
85399;SDS011;75813;48.758;9.290;2024-03-29T08:12:50;3.90;;;1.10;;
85399;SDS011;75813;48.758;9.290;2024-03-29T08:15:16;3.63;;;1.00;;
85399;SDS011;75813;48.758;9.290;2024-03-29T08:17:43;4.47;;;1.23;;
85399;SDS011;75813;48.758;9.290;2024-03-29T08:20:09;4.00;;;1.63;;
85399;SDS011;75813;48.758;9.290;2024-03-29T08:22:35;3.55;;;1.00;;
85399;SDS011;75813;48.758;9.290;2024-03-29T08:25:00;4.80;;;1.52;;
85399;SDS011;75813;48.758;9.290;2024-03-29T08:27:26;4.45;;;1.40;;
85399;SDS011;75813;48.758;9.290;2024-03-29T08:29:52;3.40;;;1.20;;
85399;SDS011;75813;48.758;9.290;2024-03-29T08:32:18;5.78;;;2.22;;
85399;SDS011;75813;48.758;9.290;2024-03-29T08:34:43;3.28;;;1.40;;
85399;SDS011;75813;48.758;9.290;2024-03-29T08:37:09;4.63;;;1.60;;
85399;SDS011;75813;48.758;9.290;2024-03-29T08:39:34;4.50;;;2.05;;
85399;SDS011;75813;48.758;9.290;2024-03-29T08:42:02;5.70;;;1.67;;
85399;SDS011;75813;48.758;9.290;2024-03-29T08:44:30;5.03;;;1.73;;
85399;SDS011;75813;48.758;9.290;2024-03-29T08:46:56;5.13;;;1.77;;
85399;SDS011;75813;48.758;9.290;2024-03-29T08:49:23;5.30;;;1.73;;
85399;SDS011;75813;48.758;9.290;2024-03-29T08:51:49;6.78;;;1.58;;
85399;SDS011;75813;48.758;9.290;2024-03-29T08:54:14;5.50;;;1.63;;
85399;SDS011;75813;48.758;9.290;2024-03-29T08:56:40;5.25;;;1.70;;
85399;SDS011;75813;48.758;9.290;2024-03-29T08:59:06;4.68;;;1.58;;
85399;SDS011;75813;48.758;9.290;2024-03-29T09:01:39;5.18;;;1.60;;
85399;SDS011;75813;48.758;9.290;2024-03-29T09:04:06;5.10;;;1.70;;
85399;SDS011;75813;48.758;9.290;2024-03-29T09:06:35;4.47;;;1.65;;
85399;SDS011;75813;48.758;9.290;2024-03-29T09:09:00;3.67;;;1.50;;
85399;SDS011;75813;48.758;9.290;2024-03-29T09:11:26;3.88;;;1.30;;
85399;SDS011;75813;48.758;9.290;2024-03-29T09:13:51;3.40;;;1.30;;
85399;SDS011;75813;48.758;9.290;2024-03-29T09:16:19;4.10;;;1.35;;
85399;SDS011;75813;48.758;9.290;2024-03-29T09:18:45;3.20;;;1.20;;
85399;SDS011;75813;48.758;9.290;2024-03-29T09:21:11;3.85;;;1.10;;
85399;SDS011;75813;48.758;9.290;2024-03-29T09:23:36;3.92;;;1.33;;
85399;SDS011;75813;48.758;9.290;2024-03-29T09:26:06;3.28;;;1.05;;
85399;SDS011;75813;48.758;9.290;2024-03-29T09:28:32;3.33;;;1.02;;
85399;SDS011;75813;48.758;9.290;2024-03-29T09:30:59;4.72;;;1.17;;
85399;SDS011;75813;48.758;9.290;2024-03-29T09:33:25;3.97;;;1.20;;
85399;SDS011;75813;48.758;9.290;2024-03-29T09:35:51;2.10;;;1.10;;
85399;SDS011;75813;48.758;9.290;2024-03-29T09:38:16;4.10;;;1.42;;
85399;SDS011;75813;48.758;9.290;2024-03-29T09:40:42;4.28;;;1.55;;
85399;SDS011;75813;48.758;9.290;2024-03-29T09:43:08;5.43;;;2.13;;
85399;SDS011;75813;48.758;9.290;2024-03-29T09:45:35;5.93;;;2.08;;
85399;SDS011;75813;48.758;9.290;2024-03-29T09:48:06;5.35;;;2.40;;
85399;SDS011;75813;48.758;9.290;2024-03-29T09:50:34;9.73;;;2.83;;
85399;SDS011;75813;48.758;9.290;2024-03-29T09:53:06;6.55;;;2.35;;
85399;SDS011;75813;48.758;9.290;2024-03-29T09:55:33;8.63;;;2.50;;
85399;SDS011;75813;48.758;9.290;2024-03-29T09:58:00;7.28;;;3.10;;
85399;SDS011;75813;48.758;9.290;2024-03-29T10:00:26;6.15;;;2.22;;
85399;SDS011;75813;48.758;9.290;2024-03-29T10:02:52;7.35;;;2.50;;
85399;SDS011;75813;48.758;9.290;2024-03-29T10:05:20;7.00;;;2.38;;
85399;SDS011;75813;48.758;9.290;2024-03-29T10:07:46;6.90;;;2.30;;
85399;SDS011;75813;48.758;9.290;2024-03-29T10:10:11;4.60;;;1.55;;
85399;SDS011;75813;48.758;9.290;2024-03-29T10:12:37;4.85;;;1.50;;
85399;SDS011;75813;48.758;9.290;2024-03-29T10:15:03;6.00;;;1.60;;
85399;SDS011;75813;48.758;9.290;2024-03-29T10:17:46;4.85;;;1.30;;
85399;SDS011;75813;48.758;9.290;2024-03-29T10:20:17;5.95;;;1.60;;
85399;SDS011;75813;48.758;9.290;2024-03-29T10:22:43;5.03;;;1.75;;
85399;SDS011;75813;48.758;9.290;2024-03-29T10:25:10;4.82;;;1.48;;
85399;SDS011;75813;48.758;9.290;2024-03-29T10:27:36;5.53;;;1.70;;
85399;SDS011;75813;48.758;9.290;2024-03-29T10:30:03;4.30;;;1.70;;
85399;SDS011;75813;48.758;9.290;2024-03-29T10:32:29;6.25;;;1.80;;
85399;SDS011;75813;48.758;9.290;2024-03-29T10:34:55;4.53;;;1.38;;
85399;SDS011;75813;48.758;9.290;2024-03-29T10:37:21;5.15;;;1.80;;
85399;SDS011;75813;48.758;9.290;2024-03-29T10:39:51;4.70;;;1.80;;
85399;SDS011;75813;48.758;9.290;2024-03-29T10:42:18;4.30;;;1.45;;
85399;SDS011;75813;48.758;9.290;2024-03-29T10:44:46;4.18;;;1.60;;
85399;SDS011;75813;48.758;9.290;2024-03-29T10:47:16;5.40;;;1.60;;
85399;SDS011;75813;48.758;9.290;2024-03-29T10:49:44;4.72;;;1.45;;
85399;SDS011;75813;48.758;9.290;2024-03-29T10:52:14;4.80;;;1.55;;
85399;SDS011;75813;48.758;9.290;2024-03-29T10:54:42;5.13;;;1.70;;
85399;SDS011;75813;48.758;9.290;2024-03-29T10:57:11;3.90;;;1.55;;
85399;SDS011;75813;48.758;9.290;2024-03-29T10:59:48;4.53;;;1.67;;
85399;SDS011;75813;48.758;9.290;2024-03-29T11:05:29;5.18;;;1.75;;
85399;SDS011;75813;48.758;9.290;2024-03-29T11:07:57;5.13;;;2.10;;
85399;SDS011;75813;48.758;9.290;2024-03-29T11:13:24;6.53;;;2.47;;
85399;SDS011;75813;48.758;9.290;2024-03-29T11:15:59;6.57;;;1.92;;
85399;SDS011;75813;48.758;9.290;2024-03-29T11:18:25;6.35;;;2.30;;
85399;SDS011;75813;48.758;9.290;2024-03-29T11:20:52;5.75;;;2.10;;
85399;SDS011;75813;48.758;9.290;2024-03-29T11:23:20;5.70;;;2.10;;
85399;SDS011;75813;48.758;9.290;2024-03-29T11:25:48;5.28;;;1.70;;
85399;SDS011;75813;48.758;9.290;2024-03-29T11:28:22;5.93;;;1.77;;
85399;SDS011;75813;48.758;9.290;2024-03-29T11:31:00;4.68;;;1.67;;
85399;SDS011;75813;48.758;9.290;2024-03-29T11:36:14;5.80;;;1.52;;
85399;SDS011;75813;48.758;9.290;2024-03-29T11:38:48;4.95;;;2.00;;
85399;SDS011;75813;48.758;9.290;2024-03-29T11:41:18;3.85;;;1.40;;
85399;SDS011;75813;48.758;9.290;2024-03-29T11:43:47;6.03;;;1.70;;
85399;SDS011;75813;48.758;9.290;2024-03-29T11:46:12;6.85;;;1.80;;
85399;SDS011;75813;48.758;9.290;2024-03-29T11:48:39;5.25;;;1.77;;
85399;SDS011;75813;48.758;9.290;2024-03-29T11:51:06;5.15;;;1.27;;
85399;SDS011;75813;48.758;9.290;2024-03-29T11:53:35;4.93;;;1.52;;
85399;SDS011;75813;48.758;9.290;2024-03-29T11:56:01;6.72;;;1.92;;
85399;SDS011;75813;48.758;9.290;2024-03-29T11:58:28;5.60;;;1.83;;
85399;SDS011;75813;48.758;9.290;2024-03-29T12:00:55;4.53;;;1.63;;
85399;SDS011;75813;48.758;9.290;2024-03-29T12:03:22;5.35;;;1.92;;
85399;SDS011;75813;48.758;9.290;2024-03-29T12:05:50;4.55;;;1.73;;
85399;SDS011;75813;48.758;9.290;2024-03-29T12:08:17;5.38;;;1.77;;
85399;SDS011;75813;48.758;9.290;2024-03-29T12:10:42;4.78;;;2.10;;
85399;SDS011;75813;48.758;9.290;2024-03-29T12:13:08;4.53;;;1.83;;
85399;SDS011;75813;48.758;9.290;2024-03-29T12:15:34;8.82;;;1.52;;
85399;SDS011;75813;48.758;9.290;2024-03-29T12:18:00;4.60;;;1.55;;
85399;SDS011;75813;48.758;9.290;2024-03-29T12:20:33;5.88;;;1.83;;
85399;SDS011;75813;48.758;9.290;2024-03-29T12:23:00;6.40;;;1.77;;
85399;SDS011;75813;48.758;9.290;2024-03-29T12:25:30;5.15;;;1.90;;
85399;SDS011;75813;48.758;9.290;2024-03-29T12:27:57;5.55;;;1.75;;
85399;SDS011;75813;48.758;9.290;2024-03-29T12:30:23;4.65;;;1.70;;
85399;SDS011;75813;48.758;9.290;2024-03-29T12:32:48;7.32;;;1.77;;
85399;SDS011;75813;48.758;9.290;2024-03-29T12:35:26;4.63;;;1.58;;
85399;SDS011;75813;48.758;9.290;2024-03-29T12:37:52;3.00;;;0.90;;
85399;SDS011;75813;48.758;9.290;2024-03-29T12:40:18;3.10;;;0.90;;
85399;SDS011;75813;48.758;9.290;2024-03-29T12:42:48;14.02;;;1.38;;
85399;SDS011;75813;48.758;9.290;2024-03-29T12:45:13;3.90;;;0.90;;
85399;SDS011;75813;48.758;9.290;2024-03-29T12:47:39;2.08;;;0.70;;
85399;SDS011;75813;48.758;9.290;2024-03-29T12:50:05;2.40;;;0.90;;
85399;SDS011;75813;48.758;9.290;2024-03-29T12:52:37;1.73;;;0.80;;
85399;SDS011;75813;48.758;9.290;2024-03-29T12:55:04;2.70;;;0.90;;
85399;SDS011;75813;48.758;9.290;2024-03-29T12:57:31;2.78;;;1.00;;
85399;SDS011;75813;48.758;9.290;2024-03-29T12:59:56;4.55;;;1.17;;
85399;SDS011;75813;48.758;9.290;2024-03-29T13:02:21;4.00;;;1.27;;
85399;SDS011;75813;48.758;9.290;2024-03-29T13:04:48;3.42;;;1.13;;
85399;SDS011;75813;48.758;9.290;2024-03-29T13:07:14;3.42;;;1.02;;
85399;SDS011;75813;48.758;9.290;2024-03-29T13:09:40;4.25;;;1.10;;
85399;SDS011;75813;48.758;9.290;2024-03-29T13:12:06;3.40;;;1.17;;
85399;SDS011;75813;48.758;9.290;2024-03-29T13:14:31;3.08;;;1.35;;
85399;SDS011;75813;48.758;9.290;2024-03-29T13:16:58;3.38;;;0.90;;
85399;SDS011;75813;48.758;9.290;2024-03-29T13:19:24;8.13;;;3.08;;
85399;SDS011;75813;48.758;9.290;2024-03-29T13:21:49;4.25;;;1.00;;
85399;SDS011;75813;48.758;9.290;2024-03-29T13:24:15;3.95;;;0.90;;
85399;SDS011;75813;48.758;9.290;2024-03-29T13:26:40;4.32;;;1.23;;
85399;SDS011;75813;48.758;9.290;2024-03-29T13:29:06;3.40;;;1.10;;
85399;SDS011;75813;48.758;9.290;2024-03-29T13:31:31;2.35;;;1.00;;
85399;SDS011;75813;48.758;9.290;2024-03-29T13:33:58;3.33;;;1.33;;
85399;SDS011;75813;48.758;9.290;2024-03-29T13:36:44;4.43;;;1.20;;
85399;SDS011;75813;48.758;9.290;2024-03-29T13:39:10;3.35;;;1.23;;
85399;SDS011;75813;48.758;9.290;2024-03-29T13:41:38;3.33;;;1.17;;
85399;SDS011;75813;48.758;9.290;2024-03-29T13:44:04;3.63;;;1.23;;
85399;SDS011;75813;48.758;9.290;2024-03-29T13:46:34;3.95;;;1.20;;
85399;SDS011;75813;48.758;9.290;2024-03-29T13:49:00;4.30;;;1.23;;
85399;SDS011;75813;48.758;9.290;2024-03-29T13:51:27;4.97;;;1.38;;
85399;SDS011;75813;48.758;9.290;2024-03-29T13:53:52;3.97;;;1.08;;
85399;SDS011;75813;48.758;9.290;2024-03-29T13:56:21;3.03;;;1.10;;
85399;SDS011;75813;48.758;9.290;2024-03-29T13:58:46;9.02;;;1.58;;
85399;SDS011;75813;48.758;9.290;2024-03-29T14:01:12;5.05;;;1.10;;
85399;SDS011;75813;48.758;9.290;2024-03-29T14:03:38;3.90;;;1.38;;
85399;SDS011;75813;48.758;9.290;2024-03-29T14:06:03;3.63;;;1.35;;
85399;SDS011;75813;48.758;9.290;2024-03-29T14:08:30;3.30;;;1.20;;
85399;SDS011;75813;48.758;9.290;2024-03-29T14:10:56;4.63;;;1.30;;
85399;SDS011;75813;48.758;9.290;2024-03-29T14:13:22;3.90;;;1.48;;
85399;SDS011;75813;48.758;9.290;2024-03-29T14:15:48;3.70;;;1.33;;
85399;SDS011;75813;48.758;9.290;2024-03-29T14:18:14;3.80;;;1.20;;
85399;SDS011;75813;48.758;9.290;2024-03-29T14:20:39;2.85;;;1.10;;
85399;SDS011;75813;48.758;9.290;2024-03-29T14:23:05;2.58;;;1.00;;
85399;SDS011;75813;48.758;9.290;2024-03-29T14:25:34;2.70;;;0.90;;
85399;SDS011;75813;48.758;9.290;2024-03-29T14:27:59;4.22;;;1.40;;
85399;SDS011;75813;48.758;9.290;2024-03-29T14:30:27;3.10;;;1.08;;
85399;SDS011;75813;48.758;9.290;2024-03-29T14:32:53;2.80;;;1.00;;
85399;SDS011;75813;48.758;9.290;2024-03-29T14:35:19;6.75;;;1.15;;
85399;SDS011;75813;48.758;9.290;2024-03-29T14:37:45;5.30;;;1.38;;
85399;SDS011;75813;48.758;9.290;2024-03-29T14:40:11;3.75;;;1.15;;
85399;SDS011;75813;48.758;9.290;2024-03-29T14:42:39;3.40;;;1.30;;
85399;SDS011;75813;48.758;9.290;2024-03-29T14:45:05;3.83;;;1.17;;
85399;SDS011;75813;48.758;9.290;2024-03-29T14:47:32;3.58;;;1.25;;
85399;SDS011;75813;48.758;9.290;2024-03-29T14:49:58;3.58;;;1.27;;
85399;SDS011;75813;48.758;9.290;2024-03-29T14:52:24;5.38;;;1.15;;